createdAt,value
2023-05-07T00:02:18.169Z,96206.19
2023-05-07T00:04:45.664Z,96213.06
2023-05-07T00:07:13.206Z,96218.50
2023-05-07T00:09:40.866Z,96210.31
2023-05-07T00:12:09.778Z,96223.56
2023-05-07T00:14:37.269Z,96221.88
2023-05-07T00:17:04.739Z,96215.34
2023-05-07T00:19:32.770Z,96215.44
2023-05-07T00:22:00.432Z,96215.53
2023-05-07T00:24:27.947Z,96221.81
2023-05-07T00:26:55.454Z,96222.66
2023-05-07T00:29:24.260Z,96222.78
2023-05-07T00:31:52.011Z,96219.94
2023-05-07T00:34:20.990Z,96224.84
2023-05-07T00:36:48.460Z,96230.97
2023-05-07T00:39:16.073Z,96231.25
2023-05-07T00:41:43.627Z,96229.25
2023-05-07T00:44:11.124Z,96227.28
2023-05-07T00:46:40.030Z,96218.28
2023-05-07T00:49:07.634Z,96223.81
2023-05-07T00:51:35.288Z,96224.44
2023-05-07T00:54:04.609Z,96224.47
2023-05-07T00:56:33.639Z,96221.69
2023-05-07T00:59:03.505Z,96220.84
2023-05-07T01:01:31.227Z,96230.09
2023-05-07T01:04:00.156Z,96230.69
2023-05-07T01:06:29.340Z,96230.38
2023-05-07T01:08:58.426Z,96226.28
2023-05-07T01:11:26.678Z,96228.38
2023-05-07T01:13:55.015Z,96224.25
2023-05-07T01:16:22.890Z,96228.91
2023-05-07T01:18:50.476Z,96221.53
2023-05-07T01:21:20.229Z,96225.03
2023-05-07T01:23:49.551Z,96221.75
2023-05-07T01:26:17.250Z,96213.38
2023-05-07T01:28:44.814Z,96218.66
2023-05-07T01:31:14.435Z,96214.03
2023-05-07T01:33:46.405Z,96215.78
2023-05-07T01:36:16.085Z,96215.75
2023-05-07T01:38:44.299Z,96211.81
2023-05-07T01:41:13.990Z,96217.56
2023-05-07T01:43:43.200Z,96216.22
2023-05-07T01:46:12.113Z,96221.53
2023-05-07T01:48:40.609Z,96218.88
2023-05-07T01:51:08.247Z,96215.78
2023-05-07T01:53:38.026Z,96213.31
2023-05-07T01:56:06.273Z,96226.06
2023-05-07T01:58:35.218Z,96216.88
2023-05-07T02:01:02.677Z,96222.19
2023-05-07T02:03:30.505Z,96222.56
2023-05-07T02:05:58.069Z,96216.13
2023-05-07T02:08:25.733Z,96217.19
2023-05-07T02:10:54.813Z,96215.31
2023-05-07T02:13:23.285Z,96216.47
2023-05-07T02:15:52.357Z,96224.41
2023-05-07T02:18:19.921Z,96215.81
2023-05-07T02:20:47.376Z,96212.19
2023-05-07T02:23:14.831Z,96214.94
2023-05-07T02:25:42.436Z,96213.13
2023-05-07T02:28:09.875Z,96212.53
2023-05-07T02:30:38.752Z,96214.75
2023-05-07T02:33:09.231Z,96209.34
2023-05-07T02:35:37.087Z,96210.78
2023-05-07T02:38:04.573Z,96215.56
2023-05-07T02:40:34.555Z,96205.28
2023-05-07T02:43:02.033Z,96204.59
2023-05-07T02:45:29.517Z,96205.16
2023-05-07T02:47:57.020Z,96207.16
2023-05-07T02:50:26.163Z,96205.94
2023-05-07T02:52:53.606Z,96200.78
2023-05-07T02:55:21.085Z,96204.56
2023-05-07T02:57:48.572Z,96201.84
2023-05-07T03:00:18.704Z,96200.81
2023-05-07T03:02:46.274Z,96207.16
2023-05-07T03:05:15.253Z,96200.50
2023-05-07T03:07:46.200Z,96205.44
2023-05-07T03:10:13.755Z,96207.72
2023-05-07T03:12:41.413Z,96199.84
2023-05-07T03:15:10.306Z,96200.94
2023-05-07T03:17:37.749Z,96210.75
2023-05-07T03:20:06.216Z,96202.50
2023-05-07T03:22:33.756Z,96208.13
2023-05-07T03:25:02.635Z,96208.28
2023-05-07T03:27:30.092Z,96202.06
2023-05-07T03:29:57.609Z,96209.38
2023-05-07T03:32:25.167Z,96201.34
2023-05-07T03:34:52.731Z,96194.78
2023-05-07T03:37:20.507Z,96199.81
2023-05-07T03:39:47.955Z,96195.56
2023-05-07T03:42:16.840Z,96202.72
2023-05-07T03:44:44.323Z,96211.13
2023-05-07T03:47:12.107Z,96211.19
2023-05-07T03:49:39.598Z,96212.22
2023-05-07T03:52:07.257Z,96214.41
2023-05-07T03:54:34.771Z,96212.31
2023-05-07T03:57:02.683Z,96224.66
2023-05-07T03:59:31.480Z,96227.28
2023-05-07T04:02:00.864Z,96232.16
2023-05-07T04:04:33.703Z,96235.75
2023-05-07T04:07:01.433Z,96226.13
2023-05-07T04:09:29.019Z,96231.63
2023-05-07T04:11:56.477Z,96227.38
2023-05-07T04:14:23.951Z,96235.66
2023-05-07T04:16:52.764Z,96233.56
2023-05-07T04:19:20.296Z,96236.22
2023-05-07T04:21:47.741Z,96236.47
2023-05-07T04:24:15.193Z,96234.81
2023-05-07T04:26:42.630Z,96235.81
2023-05-07T04:29:10.109Z,96233.53
2023-05-07T04:31:37.669Z,96236.25
2023-05-07T04:34:06.544Z,96233.28
2023-05-07T04:36:34.768Z,96228.03
2023-05-07T04:39:02.337Z,96229.78
2023-05-07T04:41:29.817Z,96227.94
2023-05-07T04:43:57.885Z,96229.63
2023-05-07T04:46:25.985Z,96229.25
2023-05-07T04:48:53.506Z,96228.50
2023-05-07T04:51:22.304Z,96223.44
2023-05-07T04:53:51.442Z,96226.81
2023-05-07T04:56:18.880Z,96223.56
2023-05-07T04:58:46.356Z,96223.00
2023-05-07T05:01:13.859Z,96219.34
2023-05-07T05:03:41.893Z,96231.97
2023-05-07T05:06:09.564Z,96221.31
2023-05-07T05:08:38.383Z,96238.22
2023-05-07T05:11:05.903Z,96240.38
2023-05-07T05:13:33.385Z,96248.25
2023-05-07T05:16:01.037Z,96254.03
2023-05-07T05:18:28.593Z,96258.13
2023-05-07T05:20:56.028Z,96260.69
2023-05-07T05:23:23.484Z,96247.28
2023-05-07T05:25:52.285Z,96262.94
2023-05-07T05:28:19.798Z,96255.25
2023-05-07T05:30:47.344Z,96251.97
2023-05-07T05:33:14.985Z,96244.47
2023-05-07T05:35:42.467Z,96246.22
2023-05-07T05:38:10.018Z,96240.78
2023-05-07T05:40:37.454Z,96243.97
2023-05-07T05:43:06.232Z,96239.53
2023-05-07T05:45:33.663Z,96248.09
2023-05-07T05:48:02.196Z,96251.63
2023-05-07T05:50:29.669Z,96249.72
2023-05-07T05:52:57.430Z,96251.59
2023-05-07T05:55:25.046Z,96261.28
2023-05-07T05:57:52.520Z,96259.75
2023-05-07T06:00:23.321Z,96256.44
2023-05-07T06:02:50.872Z,96250.31
2023-05-07T06:05:18.696Z,96247.41
2023-05-07T06:07:46.209Z,96258.56
2023-05-07T06:10:13.990Z,96263.09
2023-05-07T06:12:41.732Z,96270.06
2023-05-07T06:15:09.677Z,96266.00
2023-05-07T06:17:38.538Z,96268.84
2023-05-07T06:20:07.286Z,96274.47
2023-05-07T06:22:34.742Z,96270.53
2023-05-07T06:25:02.308Z,96269.91
2023-05-07T06:27:29.962Z,96273.84
2023-05-07T06:29:57.430Z,96279.19
2023-05-07T06:32:24.913Z,96286.97
2023-05-07T06:34:53.757Z,96286.66
2023-05-07T06:37:21.278Z,96294.91
2023-05-07T06:39:48.710Z,96295.53
2023-05-07T06:42:16.175Z,96285.84
2023-05-07T06:44:43.632Z,96292.44
2023-05-07T06:47:11.882Z,96301.03
2023-05-07T06:49:40.794Z,96306.88
2023-05-07T06:52:09.578Z,96308.94
2023-05-07T06:54:37.083Z,96308.94
2023-05-07T06:57:04.599Z,96303.16
2023-05-07T06:59:32.063Z,96297.41
2023-05-07T07:01:59.564Z,96302.97
2023-05-07T07:04:27.150Z,96298.56
2023-05-07T07:06:55.918Z,96294.03
2023-05-07T07:09:24.900Z,96296.38
2023-05-07T07:11:52.354Z,96299.38
2023-05-07T07:14:19.812Z,96300.44
2023-05-07T07:16:47.753Z,96305.22
2023-05-07T07:19:16.096Z,96299.41
2023-05-07T07:21:43.603Z,96298.31
2023-05-07T07:24:11.045Z,96294.91
2023-05-07T07:26:40.878Z,96293.00
2023-05-07T07:29:08.656Z,96298.22
2023-05-07T07:31:36.165Z,96302.13
2023-05-07T07:34:03.657Z,96298.84
2023-05-07T07:36:38.890Z,96296.97
2023-05-07T07:39:13.391Z,96297.81
2023-05-07T07:41:42.241Z,96297.25
2023-05-07T07:44:10.542Z,96299.28
2023-05-07T07:46:38.016Z,96302.66
2023-05-07T07:49:05.553Z,96296.78
2023-05-07T07:51:33.022Z,96308.53
2023-05-07T07:54:00.658Z,96309.56
2023-05-07T07:56:28.108Z,96301.88
2023-05-07T07:58:56.901Z,96307.75
2023-05-07T08:01:24.352Z,96297.00
2023-05-07T08:03:51.943Z,96299.22
2023-05-07T08:06:19.782Z,96297.91
2023-05-07T08:08:47.252Z,96292.47
2023-05-07T08:11:14.830Z,96297.94
2023-05-07T08:13:42.326Z,96289.13
2023-05-07T08:16:11.267Z,96289.56
2023-05-07T08:18:38.794Z,96286.69
2023-05-07T08:21:06.540Z,96303.09
2023-05-07T08:23:35.392Z,96299.06
2023-05-07T08:26:02.895Z,96309.09
2023-05-07T08:28:30.435Z,96310.84
2023-05-07T08:31:00.802Z,96323.09
2023-05-07T08:33:29.730Z,96323.66
2023-05-07T08:35:57.155Z,96320.31
2023-05-07T08:38:24.693Z,96307.97
2023-05-07T08:40:52.188Z,96321.13
2023-05-07T08:43:21.410Z,96316.03
2023-05-07T08:45:55.415Z,96315.66
2023-05-07T08:48:26.995Z,96322.53
2023-05-07T08:50:55.872Z,96317.81
2023-05-07T08:53:23.527Z,96316.94
2023-05-07T08:55:51.238Z,96323.22
2023-05-07T08:58:18.735Z,96326.00
2023-05-07T09:00:46.287Z,96327.94
2023-05-07T09:03:15.056Z,96319.56
2023-05-07T09:05:44.682Z,96323.66
2023-05-07T09:08:16.981Z,96324.00
2023-05-07T09:10:44.473Z,96321.28
2023-05-07T09:13:15.445Z,96318.84
2023-05-07T09:15:43.132Z,96321.00
2023-05-07T09:18:10.577Z,96327.88
2023-05-07T09:20:38.510Z,96333.84
2023-05-07T09:23:06.109Z,96320.25
2023-05-07T09:25:36.317Z,96323.72
2023-05-07T09:28:05.148Z,96324.22
2023-05-07T09:30:33.580Z,96318.06
2023-05-07T09:33:02.125Z,96311.75
2023-05-07T09:35:30.212Z,96316.19
2023-05-07T09:38:01.656Z,96318.28
2023-05-07T09:40:32.916Z,96318.19
2023-05-07T09:43:12.618Z,96316.81
2023-05-07T09:45:40.425Z,96312.88
2023-05-07T09:48:08.883Z,96300.66
2023-05-07T09:50:38.757Z,96308.84
2023-05-07T09:53:06.809Z,96304.97
2023-05-07T09:55:34.501Z,96301.88
2023-05-07T09:58:03.606Z,96301.03
2023-05-07T10:00:33.459Z,96293.03
2023-05-07T10:03:03.457Z,96297.44
2023-05-07T10:05:31.694Z,96298.78
2023-05-07T10:07:59.904Z,96298.97
2023-05-07T10:10:29.641Z,96308.25
2023-05-07T10:12:57.402Z,96298.28
2023-05-07T10:15:25.632Z,96304.28
2023-05-07T10:17:55.523Z,96306.00
2023-05-07T10:20:23.146Z,96300.25
2023-05-07T10:22:52.056Z,96302.47
2023-05-07T10:25:22.744Z,96307.06
2023-05-07T10:27:54.075Z,96312.03
2023-05-07T10:30:33.100Z,96308.31
2023-05-07T10:33:07.553Z,96299.78
2023-05-07T10:35:42.823Z,96307.03
2023-05-07T10:38:10.832Z,96303.31
2023-05-07T10:40:38.620Z,96294.50
2023-05-07T10:43:10.253Z,96290.72
2023-05-07T10:45:38.537Z,96281.09
2023-05-07T10:48:27.252Z,96282.72
2023-05-07T10:51:20.912Z,96284.53
2023-05-07T10:53:48.366Z,96275.28
2023-05-07T10:56:29.077Z,96267.91
2023-05-07T10:58:56.654Z,96264.31
2023-05-07T11:01:52.715Z,96282.31
2023-05-07T11:04:25.642Z,96283.13
2023-05-07T11:07:25.958Z,96276.66
2023-05-07T11:09:59.304Z,96274.81
2023-05-07T11:13:03.619Z,96279.28
2023-05-07T11:15:48.069Z,96278.78
2023-05-07T11:18:16.971Z,96281.41
2023-05-07T11:21:00.452Z,96288.09
2023-05-07T11:24:00.558Z,96279.94
2023-05-07T11:26:29.724Z,96274.97
2023-05-07T11:28:57.795Z,96274.28
2023-05-07T11:31:28.115Z,96274.16
2023-05-07T11:33:56.343Z,96276.09
2023-05-07T11:36:27.037Z,96268.66
2023-05-07T11:38:54.619Z,96272.69
2023-05-07T11:41:22.920Z,96273.31
2023-05-07T11:43:57.980Z,96275.13
2023-05-07T11:46:25.571Z,96274.94
2023-05-07T11:48:53.327Z,96274.38
2023-05-07T11:51:21.647Z,96273.34
2023-05-07T11:53:51.074Z,96268.91
2023-05-07T11:56:20.240Z,96274.78
2023-05-07T11:58:49.166Z,96270.84
2023-05-07T12:01:17.902Z,96268.88
2023-05-07T12:03:47.045Z,96271.81
2023-05-07T12:06:16.931Z,96273.28
2023-05-07T12:08:47.828Z,96268.44
2023-05-07T12:11:19.448Z,96264.53
2023-05-07T12:13:46.996Z,96272.66
2023-05-07T12:16:14.744Z,96260.19
2023-05-07T12:18:42.632Z,96271.75
2023-05-07T12:21:10.873Z,96267.03
2023-05-07T12:23:38.883Z,96265.13
2023-05-07T12:26:07.633Z,96265.84
2023-05-07T12:28:40.625Z,96272.19
2023-05-07T12:31:08.935Z,96270.78
2023-05-07T12:33:37.235Z,96268.19
2023-05-07T12:36:07.742Z,96263.53
2023-05-07T12:38:37.666Z,96255.09
2023-05-07T12:41:06.085Z,96259.56
2023-05-07T12:43:33.578Z,96256.63
2023-05-07T12:46:05.717Z,96254.66
2023-05-07T12:48:33.381Z,96248.75
2023-05-07T12:51:02.203Z,96248.84
2023-05-07T12:53:30.782Z,96249.84
2023-05-07T12:56:00.529Z,96247.44
2023-05-07T12:58:30.004Z,96237.72
2023-05-07T13:01:00.905Z,96239.53
2023-05-07T13:03:32.078Z,96247.63
2023-05-07T13:06:01.129Z,96241.94
2023-05-07T13:08:30.460Z,96240.59
2023-05-07T13:10:59.136Z,96236.91
2023-05-07T13:13:27.261Z,96234.13
2023-05-07T13:15:55.943Z,96230.66
2023-05-07T13:18:23.583Z,96225.22
2023-05-07T13:20:52.493Z,96229.47
2023-05-07T13:23:20.224Z,96231.38
2023-05-07T13:25:47.717Z,96228.66
2023-05-07T13:28:15.300Z,96227.78
2023-05-07T13:30:42.940Z,96217.06
2023-05-07T13:33:10.551Z,96207.38
2023-05-07T13:35:38.630Z,96212.13
2023-05-07T13:38:07.479Z,96210.94
2023-05-07T13:40:34.989Z,96206.09
2023-05-07T13:43:03.083Z,96209.91
2023-05-07T13:45:31.561Z,96206.16
2023-05-07T13:47:59.574Z,96214.34
2023-05-07T13:50:30.102Z,96197.81
2023-05-07T13:52:57.681Z,96200.13
2023-05-07T13:55:26.858Z,96199.88
2023-05-07T13:57:58.702Z,96201.78
2023-05-07T14:00:26.437Z,96197.34
2023-05-07T14:02:54.237Z,96197.97
2023-05-07T14:05:21.909Z,96196.97
2023-05-07T14:07:52.777Z,96188.69
2023-05-07T14:10:21.198Z,96193.53
2023-05-07T14:12:50.171Z,96200.91
2023-05-07T14:15:18.125Z,96194.72
2023-05-07T14:17:46.353Z,96200.94
2023-05-07T14:20:14.526Z,96206.88
2023-05-07T14:22:42.227Z,96205.91
2023-05-07T14:25:11.518Z,96201.91
2023-05-07T14:27:39.304Z,96206.72
2023-05-07T14:30:09.461Z,96207.75
2023-05-07T14:32:37.068Z,96212.56
2023-05-07T14:35:04.985Z,96201.06
2023-05-07T14:37:32.473Z,96208.66
2023-05-07T14:39:59.957Z,96209.25
2023-05-07T14:42:27.428Z,96201.25
2023-05-07T14:44:54.884Z,96209.75
2023-05-07T14:47:23.712Z,96215.28
2023-05-07T14:49:51.188Z,96207.41
2023-05-07T14:52:18.794Z,96204.50
2023-05-07T14:54:46.275Z,96206.78
2023-05-07T14:57:17.050Z,96207.75
2023-05-07T14:59:44.665Z,96214.00
2023-05-07T15:02:13.533Z,96205.41
2023-05-07T15:04:46.805Z,96220.66
2023-05-07T15:07:15.942Z,96217.19
2023-05-07T15:09:43.486Z,96215.88
2023-05-07T15:12:11.292Z,96213.31
2023-05-07T15:14:39.401Z,96212.84
2023-05-07T15:17:06.889Z,96212.34
2023-05-07T15:19:34.459Z,96215.06
2023-05-07T15:22:03.843Z,96211.66
2023-05-07T15:24:31.745Z,96215.31
2023-05-07T15:27:00.150Z,96201.34
2023-05-07T15:29:27.686Z,96195.66
2023-05-07T15:31:55.416Z,96200.88
2023-05-07T15:34:24.941Z,96205.69
2023-05-07T15:36:52.392Z,96205.78
2023-05-07T15:39:22.972Z,96206.38
2023-05-07T15:41:51.954Z,96210.00
2023-05-07T15:44:19.466Z,96219.53
2023-05-07T15:46:47.344Z,96217.31
2023-05-07T15:49:15.001Z,96222.94
2023-05-07T15:51:42.458Z,96214.19
2023-05-07T15:54:09.956Z,96226.03
2023-05-07T15:56:38.851Z,96219.03
2023-05-07T15:59:06.363Z,96216.75
2023-05-07T16:01:33.934Z,96217.56
2023-05-07T16:04:01.606Z,96232.06
2023-05-07T16:06:29.071Z,96231.38
2023-05-07T16:08:56.545Z,96232.53
2023-05-07T16:11:24.006Z,96231.94
2023-05-07T16:13:52.838Z,96234.88
2023-05-07T16:16:20.440Z,96239.75
2023-05-07T16:18:48.013Z,96233.38
2023-05-07T16:21:15.474Z,96237.56
2023-05-07T16:23:43.242Z,96239.84
2023-05-07T16:26:10.725Z,96241.25
2023-05-07T16:28:38.547Z,96245.25
2023-05-07T16:31:08.530Z,96239.88
2023-05-07T16:33:36.141Z,96238.97
2023-05-07T16:36:03.812Z,96238.22
2023-05-07T16:38:33.086Z,96237.16
2023-05-07T16:41:01.250Z,96240.78
2023-05-07T16:43:28.772Z,96238.38
2023-05-07T16:45:56.324Z,96234.03
2023-05-07T16:48:25.175Z,96243.41
2023-05-07T16:50:52.679Z,96247.50
2023-05-07T16:53:20.748Z,96241.97
2023-05-07T16:55:48.253Z,96253.56
2023-05-07T16:58:16.297Z,96248.41
2023-05-07T17:00:50.658Z,96248.34
2023-05-07T17:03:19.286Z,96254.75
2023-05-07T17:05:48.544Z,96247.44
2023-05-07T17:08:16.044Z,96256.91
2023-05-07T17:10:43.583Z,96258.09
2023-05-07T17:13:11.102Z,96268.31
2023-05-07T17:15:38.738Z,96276.81
2023-05-07T17:18:06.834Z,96281.13
2023-05-07T17:20:35.386Z,96284.25
2023-05-07T17:23:04.216Z,96284.56
2023-05-07T17:25:33.220Z,96288.03
2023-05-07T17:28:00.734Z,96289.34
2023-05-07T17:30:28.188Z,96286.09
2023-05-07T17:33:03.777Z,96291.09
2023-05-07T17:35:37.021Z,96298.16
2023-05-07T17:38:05.918Z,96296.06
2023-05-07T17:40:34.410Z,96294.25
2023-05-07T17:43:02.665Z,96303.56
2023-05-07T17:45:30.149Z,96306.88
2023-05-07T17:47:57.697Z,96302.31
2023-05-07T17:50:25.231Z,96294.50
2023-05-07T17:52:52.740Z,96306.47
2023-05-07T17:55:21.641Z,96315.13
2023-05-07T17:57:49.169Z,96307.09
2023-05-07T18:00:17.032Z,96323.00
2023-05-07T18:02:44.619Z,96319.28
2023-05-07T18:05:12.267Z,96321.75
2023-05-07T18:07:39.789Z,96321.53
2023-05-07T18:10:08.061Z,96330.75
2023-05-07T18:12:36.912Z,96328.91
2023-05-07T18:15:04.888Z,96334.09
2023-05-07T18:17:32.352Z,96337.88
2023-05-07T18:19:59.904Z,96341.56
2023-05-07T18:22:27.708Z,96343.78
2023-05-07T18:24:55.861Z,96341.72
2023-05-07T18:27:23.550Z,96348.44
2023-05-07T18:29:52.763Z,96345.84
2023-05-07T18:32:21.472Z,96356.94
2023-05-07T18:34:49.301Z,96352.94
2023-05-07T18:37:16.966Z,96361.28
2023-05-07T18:39:44.722Z,96351.75
2023-05-07T18:42:12.978Z,96370.13
2023-05-07T18:44:40.502Z,96363.53
2023-05-07T18:47:09.314Z,96369.31
2023-05-07T18:49:37.460Z,96372.41
2023-05-07T18:52:05.292Z,96364.97
2023-05-07T18:54:32.894Z,96362.53
2023-05-07T18:57:00.455Z,96368.72
2023-05-07T18:59:27.996Z,96368.78
2023-05-07T19:01:55.472Z,96367.78
2023-05-07T19:04:24.513Z,96368.16
2023-05-07T19:06:52.134Z,96372.09
2023-05-07T19:09:19.673Z,96379.63
2023-05-07T19:11:47.338Z,96382.44
2023-05-07T19:14:15.485Z,96387.19
2023-05-07T19:16:43.048Z,96388.84
2023-05-07T19:19:10.926Z,96397.75
2023-05-07T19:21:39.770Z,96401.38
2023-05-07T19:24:08.132Z,96394.81
2023-05-07T19:26:35.590Z,96402.50
2023-05-07T19:29:16.369Z,96411.53
2023-05-07T19:31:45.807Z,96413.53
2023-05-07T19:34:14.415Z,96412.00
2023-05-07T19:36:43.408Z,96406.34
2023-05-07T19:39:11.468Z,96414.91
2023-05-07T19:41:38.968Z,96421.66
2023-05-07T19:44:06.462Z,96420.38
2023-05-07T19:46:34.031Z,96414.81
2023-05-07T19:49:01.799Z,96428.22
2023-05-07T19:51:32.302Z,96428.59
2023-05-07T19:54:01.239Z,96430.69
2023-05-07T19:56:28.813Z,96439.19
2023-05-07T19:58:56.346Z,96438.81
2023-05-07T20:01:23.900Z,96430.16
2023-05-07T20:03:51.541Z,96439.00
2023-05-07T20:06:19.365Z,96435.31
2023-05-07T20:08:46.944Z,96450.16
2023-05-07T20:11:15.812Z,96451.91
2023-05-07T20:13:43.286Z,96452.81
2023-05-07T20:16:10.955Z,96452.72
2023-05-07T20:18:38.613Z,96447.38
2023-05-07T20:21:06.820Z,96457.03
2023-05-07T20:23:34.329Z,96446.63
2023-05-07T20:26:01.820Z,96452.88
2023-05-07T20:28:30.695Z,96449.31
2023-05-07T20:30:58.163Z,96457.03
2023-05-07T20:33:26.818Z,96453.91
2023-05-07T20:35:54.293Z,96457.53
2023-05-07T20:38:21.825Z,96458.22
2023-05-07T20:40:49.356Z,96453.91
2023-05-07T20:43:16.817Z,96456.94
2023-05-07T20:45:45.809Z,96457.13
2023-05-07T20:48:14.445Z,96461.28
2023-05-07T20:50:42.008Z,96462.28
2023-05-07T20:53:09.479Z,96463.66
2023-05-07T20:55:37.021Z,96469.31
2023-05-07T20:58:04.475Z,96469.28
2023-05-07T21:00:31.922Z,96471.41
2023-05-07T21:03:00.776Z,96476.06
2023-05-07T21:05:28.711Z,96480.69
2023-05-07T21:07:56.519Z,96477.69
2023-05-07T21:10:23.997Z,96483.66
2023-05-07T21:12:52.264Z,96479.81
2023-05-07T21:15:19.795Z,96482.03
2023-05-07T21:17:47.278Z,96485.03
2023-05-07T21:20:16.462Z,96485.69
2023-05-07T21:22:43.973Z,96483.63
2023-05-07T21:25:13.344Z,96478.19
2023-05-07T21:27:41.071Z,96483.59
2023-05-07T21:30:09.904Z,96493.94
2023-05-07T21:32:37.457Z,96497.91
2023-05-07T21:35:05.645Z,96504.69
2023-05-07T21:37:34.511Z,96496.97
2023-05-07T21:40:01.981Z,96492.38
2023-05-07T21:42:29.496Z,96496.03
2023-05-07T21:44:56.965Z,96503.34
2023-05-07T21:47:24.650Z,96507.59
2023-05-07T21:49:52.263Z,96504.72
2023-05-07T21:52:20.674Z,96514.78
2023-05-07T21:54:52.829Z,96511.47
2023-05-07T21:57:20.401Z,96506.50
2023-05-07T21:59:47.987Z,96506.56
2023-05-07T22:02:15.524Z,96508.59
2023-05-07T22:04:43.303Z,96514.56
2023-05-07T22:07:10.791Z,96509.78
2023-05-07T22:09:38.286Z,96506.44
2023-05-07T22:12:07.484Z,96517.03
2023-05-07T22:14:34.960Z,96510.50
2023-05-07T22:17:02.473Z,96522.50
2023-05-07T22:19:30.006Z,96519.78
2023-05-07T22:21:57.967Z,96518.00
2023-05-07T22:24:25.442Z,96529.38
2023-05-07T22:26:53.039Z,96526.88
2023-05-07T22:29:23.298Z,96529.91
2023-05-07T22:31:50.881Z,96525.69
2023-05-07T22:34:18.560Z,96526.41
2023-05-07T22:36:46.082Z,96533.03
2023-05-07T22:39:13.560Z,96528.53
2023-05-07T22:41:41.241Z,96531.38
2023-05-07T22:44:08.679Z,96526.25
2023-05-07T22:46:37.517Z,96529.75
2023-05-07T22:49:05.027Z,96526.06
2023-05-07T22:51:32.528Z,96537.41
2023-05-07T22:54:00.046Z,96526.06
2023-05-07T22:56:27.510Z,96525.44
2023-05-07T22:58:55.010Z,96525.25
2023-05-07T23:01:22.536Z,96529.59
2023-05-07T23:03:51.392Z,96533.41
2023-05-07T23:06:18.860Z,96521.59
2023-05-07T23:08:46.522Z,96517.13
2023-05-07T23:11:14.013Z,96522.25
2023-05-07T23:13:41.509Z,96527.41
2023-05-07T23:16:09.110Z,96524.75
2023-05-07T23:18:36.603Z,96525.56
2023-05-07T23:21:06.632Z,96531.72
2023-05-07T23:23:35.390Z,96532.41
2023-05-07T23:26:02.954Z,96537.34
2023-05-07T23:28:30.665Z,96534.16
2023-05-07T23:30:58.176Z,96534.34
2023-05-07T23:33:25.737Z,96536.69
2023-05-07T23:35:59.877Z,96536.69
2023-05-07T23:38:28.688Z,96536.53
2023-05-07T23:40:56.463Z,96534.81
2023-05-07T23:43:24.277Z,96539.44
2023-05-07T23:45:51.788Z,96526.81
2023-05-07T23:48:19.412Z,96521.22
2023-05-07T23:50:47.032Z,96525.19
2023-05-07T23:53:14.487Z,96534.31
2023-05-07T23:55:43.327Z,96537.19
2023-05-07T23:58:10.935Z,96526.69
